sensor_id;sensor_type;location;lat;lon;timestamp;P1;durP1;ratioP1;P2;durP2;ratioP2
74074;SDS011;62428;51.412;5.432;2023-08-31T00:00:31;3.87;;;1.50;;
74074;SDS011;62428;51.412;5.432;2023-08-31T00:02:58;4.38;;;1.70;;
74074;SDS011;62428;51.412;5.432;2023-08-31T00:05:24;3.38;;;1.73;;
74074;SDS011;62428;51.412;5.432;2023-08-31T00:07:52;2.58;;;1.40;;
74074;SDS011;62428;51.412;5.432;2023-08-31T00:10:17;2.55;;;1.27;;
74074;SDS011;62428;51.412;5.432;2023-08-31T00:12:43;2.13;;;1.33;;
74074;SDS011;62428;51.412;5.432;2023-08-31T00:15:09;3.87;;;1.60;;
74074;SDS011;62428;51.412;5.432;2023-08-31T00:17:34;3.10;;;1.30;;
74074;SDS011;62428;51.412;5.432;2023-08-31T00:20:00;4.40;;;1.60;;
74074;SDS011;62428;51.412;5.432;2023-08-31T00:22:26;3.30;;;1.65;;
74074;SDS011;62428;51.412;5.432;2023-08-31T00:24:51;3.67;;;1.70;;
74074;SDS011;62428;51.412;5.432;2023-08-31T00:27:17;3.38;;;1.60;;
74074;SDS011;62428;51.412;5.432;2023-08-31T00:29:43;2.60;;;1.70;;
74074;SDS011;62428;51.412;5.432;2023-08-31T00:32:14;2.92;;;1.50;;
74074;SDS011;62428;51.412;5.432;2023-08-31T00:34:40;3.67;;;1.50;;
74074;SDS011;62428;51.412;5.432;2023-08-31T00:37:05;4.35;;;1.73;;
74074;SDS011;62428;51.412;5.432;2023-08-31T00:39:30;4.72;;;1.92;;
74074;SDS011;62428;51.412;5.432;2023-08-31T00:41:56;2.90;;;1.53;;
74074;SDS011;62428;51.412;5.432;2023-08-31T00:44:22;6.07;;;1.50;;
74074;SDS011;62428;51.412;5.432;2023-08-31T00:46:47;3.85;;;1.60;;
74074;SDS011;62428;51.412;5.432;2023-08-31T00:49:12;3.47;;;1.37;;
74074;SDS011;62428;51.412;5.432;2023-08-31T00:51:39;4.53;;;1.63;;
74074;SDS011;62428;51.412;5.432;2023-08-31T00:54:05;3.83;;;1.40;;
74074;SDS011;62428;51.412;5.432;2023-08-31T00:56:31;2.70;;;1.50;;
74074;SDS011;62428;51.412;5.432;2023-08-31T00:58:56;3.53;;;1.60;;
74074;SDS011;62428;51.412;5.432;2023-08-31T01:01:26;3.90;;;1.70;;
74074;SDS011;62428;51.412;5.432;2023-08-31T01:09:46;6.00;;;1.83;;
74074;SDS011;62428;51.412;5.432;2023-08-31T01:15:12;5.70;;;1.77;;
74074;SDS011;62428;51.412;5.432;2023-08-31T01:17:44;5.10;;;2.20;;
74074;SDS011;62428;51.412;5.432;2023-08-31T01:20:14;3.63;;;1.88;;
74074;SDS011;62428;51.412;5.432;2023-08-31T01:23:04;4.53;;;1.92;;
74074;SDS011;62428;51.412;5.432;2023-08-31T01:25:35;6.07;;;1.80;;
74074;SDS011;62428;51.412;5.432;2023-08-31T01:28:01;4.68;;;1.80;;
74074;SDS011;62428;51.412;5.432;2023-08-31T01:30:31;4.25;;;2.20;;
74074;SDS011;62428;51.412;5.432;2023-08-31T01:32:58;5.55;;;2.20;;
74074;SDS011;62428;51.412;5.432;2023-08-31T01:35:23;4.20;;;2.20;;
74074;SDS011;62428;51.412;5.432;2023-08-31T01:37:54;6.20;;;2.30;;
74074;SDS011;62428;51.412;5.432;2023-08-31T01:40:25;4.18;;;2.15;;
74074;SDS011;62428;51.412;5.432;2023-08-31T01:43:01;4.35;;;2.10;;
74074;SDS011;62428;51.412;5.432;2023-08-31T01:45:28;4.63;;;2.25;;
74074;SDS011;62428;51.412;5.432;2023-08-31T01:47:55;5.38;;;2.20;;
74074;SDS011;62428;51.412;5.432;2023-08-31T01:50:21;4.72;;;2.03;;
74074;SDS011;62428;51.412;5.432;2023-08-31T01:52:46;3.00;;;2.03;;
74074;SDS011;62428;51.412;5.432;2023-08-31T01:55:12;4.88;;;2.25;;
74074;SDS011;62428;51.412;5.432;2023-08-31T01:57:40;5.00;;;2.10;;
74074;SDS011;62428;51.412;5.432;2023-08-31T02:00:06;4.65;;;2.65;;
74074;SDS011;62428;51.412;5.432;2023-08-31T02:02:32;3.83;;;2.40;;
74074;SDS011;62428;51.412;5.432;2023-08-31T02:04:58;4.50;;;2.38;;
74074;SDS011;62428;51.412;5.432;2023-08-31T02:07:26;4.35;;;2.50;;
74074;SDS011;62428;51.412;5.432;2023-08-31T02:09:51;4.50;;;2.53;;
74074;SDS011;62428;51.412;5.432;2023-08-31T02:12:17;4.60;;;2.80;;
74074;SDS011;62428;51.412;5.432;2023-08-31T02:14:42;5.03;;;2.50;;
74074;SDS011;62428;51.412;5.432;2023-08-31T02:17:07;5.40;;;2.40;;
74074;SDS011;62428;51.412;5.432;2023-08-31T02:19:33;4.43;;;2.10;;
74074;SDS011;62428;51.412;5.432;2023-08-31T02:21:58;5.80;;;2.80;;
74074;SDS011;62428;51.412;5.432;2023-08-31T02:24:23;6.30;;;2.87;;
74074;SDS011;62428;51.412;5.432;2023-08-31T02:26:49;5.68;;;2.42;;
74074;SDS011;62428;51.412;5.432;2023-08-31T02:29:14;4.88;;;2.55;;
74074;SDS011;62428;51.412;5.432;2023-08-31T02:31:40;5.57;;;2.73;;
74074;SDS011;62428;51.412;5.432;2023-08-31T02:34:06;9.23;;;2.90;;
74074;SDS011;62428;51.412;5.432;2023-08-31T02:36:32;4.73;;;3.00;;
74074;SDS011;62428;51.412;5.432;2023-08-31T02:38:57;8.60;;;3.57;;
74074;SDS011;62428;51.412;5.432;2023-08-31T02:41:23;5.27;;;2.70;;
74074;SDS011;62428;51.412;5.432;2023-08-31T02:43:52;4.60;;;2.75;;
74074;SDS011;62428;51.412;5.432;2023-08-31T02:46:17;5.67;;;2.77;;
74074;SDS011;62428;51.412;5.432;2023-08-31T02:48:43;4.80;;;2.60;;
74074;SDS011;62428;51.412;5.432;2023-08-31T02:51:09;8.10;;;3.13;;
74074;SDS011;62428;51.412;5.432;2023-08-31T02:53:34;7.57;;;2.87;;
74074;SDS011;62428;51.412;5.432;2023-08-31T02:56:00;4.97;;;2.73;;
74074;SDS011;62428;51.412;5.432;2023-08-31T02:58:25;5.60;;;2.90;;
74074;SDS011;62428;51.412;5.432;2023-08-31T03:00:51;5.15;;;3.00;;
74074;SDS011;62428;51.412;5.432;2023-08-31T03:03:18;5.03;;;2.67;;
74074;SDS011;62428;51.412;5.432;2023-08-31T03:05:44;9.32;;;3.03;;
74074;SDS011;62428;51.412;5.432;2023-08-31T03:08:09;4.27;;;2.60;;
74074;SDS011;62428;51.412;5.432;2023-08-31T03:10:35;6.10;;;2.95;;
74074;SDS011;62428;51.412;5.432;2023-08-31T03:13:01;6.22;;;3.13;;
74074;SDS011;62428;51.412;5.432;2023-08-31T03:15:26;4.65;;;2.80;;
74074;SDS011;62428;51.412;5.432;2023-08-31T03:17:52;5.17;;;2.53;;
74074;SDS011;62428;51.412;5.432;2023-08-31T03:20:17;5.40;;;3.00;;
74074;SDS011;62428;51.412;5.432;2023-08-31T03:22:43;6.23;;;2.70;;
74074;SDS011;62428;51.412;5.432;2023-08-31T03:25:08;7.78;;;3.53;;
74074;SDS011;62428;51.412;5.432;2023-08-31T03:27:33;5.93;;;2.95;;
74074;SDS011;62428;51.412;5.432;2023-08-31T03:29:59;6.17;;;3.13;;
74074;SDS011;62428;51.412;5.432;2023-08-31T03:32:24;4.83;;;2.70;;
74074;SDS011;62428;51.412;5.432;2023-08-31T03:34:50;8.47;;;2.77;;
74074;SDS011;62428;51.412;5.432;2023-08-31T03:37:15;6.50;;;3.05;;
74074;SDS011;62428;51.412;5.432;2023-08-31T03:39:41;6.33;;;3.03;;
74074;SDS011;62428;51.412;5.432;2023-08-31T03:42:08;5.47;;;3.25;;
74074;SDS011;62428;51.412;5.432;2023-08-31T03:44:34;7.55;;;3.30;;
74074;SDS011;62428;51.412;5.432;2023-08-31T03:46:59;9.32;;;3.53;;
74074;SDS011;62428;51.412;5.432;2023-08-31T03:49:25;8.43;;;3.60;;
74074;SDS011;62428;51.412;5.432;2023-08-31T03:51:50;5.43;;;3.20;;
74074;SDS011;62428;51.412;5.432;2023-08-31T03:54:17;7.35;;;3.72;;
74074;SDS011;62428;51.412;5.432;2023-08-31T03:56:43;6.32;;;3.40;;
74074;SDS011;62428;51.412;5.432;2023-08-31T03:59:08;5.63;;;3.00;;
74074;SDS011;62428;51.412;5.432;2023-08-31T04:01:34;5.93;;;3.17;;
74074;SDS011;62428;51.412;5.432;2023-08-31T04:03:59;5.73;;;3.37;;
74074;SDS011;62428;51.412;5.432;2023-08-31T04:06:24;7.17;;;3.50;;
74074;SDS011;62428;51.412;5.432;2023-08-31T04:08:50;9.47;;;3.10;;
74074;SDS011;62428;51.412;5.432;2023-08-31T04:11:16;8.38;;;3.10;;
74074;SDS011;62428;51.412;5.432;2023-08-31T04:13:41;9.97;;;3.00;;
74074;SDS011;62428;51.412;5.432;2023-08-31T04:16:06;5.90;;;2.63;;
74074;SDS011;62428;51.412;5.432;2023-08-31T04:18:32;6.00;;;3.30;;
74074;SDS011;62428;51.412;5.432;2023-08-31T04:20:57;7.80;;;3.33;;
74074;SDS011;62428;51.412;5.432;2023-08-31T04:23:24;6.73;;;3.17;;
74074;SDS011;62428;51.412;5.432;2023-08-31T04:25:49;7.53;;;3.03;;
74074;SDS011;62428;51.412;5.432;2023-08-31T04:28:16;5.47;;;3.28;;
74074;SDS011;62428;51.412;5.432;2023-08-31T04:30:42;5.72;;;3.35;;
74074;SDS011;62428;51.412;5.432;2023-08-31T04:33:08;5.70;;;3.30;;
74074;SDS011;62428;51.412;5.432;2023-08-31T04:35:33;7.50;;;3.23;;
74074;SDS011;62428;51.412;5.432;2023-08-31T04:37:59;9.23;;;3.50;;
74074;SDS011;62428;51.412;5.432;2023-08-31T04:40:24;6.05;;;3.00;;
74074;SDS011;62428;51.412;5.432;2023-08-31T04:42:50;6.00;;;3.30;;
74074;SDS011;62428;51.412;5.432;2023-08-31T04:45:16;9.70;;;3.53;;
74074;SDS011;62428;51.412;5.432;2023-08-31T04:47:41;7.70;;;3.30;;
74074;SDS011;62428;51.412;5.432;2023-08-31T04:50:07;9.93;;;3.37;;
74074;SDS011;62428;51.412;5.432;2023-08-31T04:52:33;6.55;;;3.10;;
74074;SDS011;62428;51.412;5.432;2023-08-31T04:55:00;6.80;;;3.07;;
74074;SDS011;62428;51.412;5.432;2023-08-31T04:57:26;5.55;;;3.10;;
74074;SDS011;62428;51.412;5.432;2023-08-31T04:59:51;11.33;;;3.80;;
74074;SDS011;62428;51.412;5.432;2023-08-31T05:02:16;8.13;;;3.00;;
74074;SDS011;62428;51.412;5.432;2023-08-31T05:04:42;8.73;;;3.07;;
74074;SDS011;62428;51.412;5.432;2023-08-31T05:07:07;7.57;;;3.20;;
74074;SDS011;62428;51.412;5.432;2023-08-31T05:09:33;5.90;;;2.88;;
74074;SDS011;62428;51.412;5.432;2023-08-31T05:12:00;6.55;;;2.80;;
74074;SDS011;62428;51.412;5.432;2023-08-31T05:14:27;6.95;;;2.90;;
74074;SDS011;62428;51.412;5.432;2023-08-31T05:16:52;9.67;;;3.40;;
74074;SDS011;62428;51.412;5.432;2023-08-31T05:19:18;7.85;;;2.97;;
74074;SDS011;62428;51.412;5.432;2023-08-31T05:21:43;10.68;;;3.78;;
74074;SDS011;62428;51.412;5.432;2023-08-31T05:24:09;7.83;;;3.70;;
74074;SDS011;62428;51.412;5.432;2023-08-31T05:26:34;7.87;;;3.30;;
74074;SDS011;62428;51.412;5.432;2023-08-31T05:28:59;10.60;;;3.40;;
74074;SDS011;62428;51.412;5.432;2023-08-31T05:31:25;7.10;;;3.43;;
74074;SDS011;62428;51.412;5.432;2023-08-31T05:33:50;6.80;;;3.20;;
74074;SDS011;62428;51.412;5.432;2023-08-31T05:36:15;4.73;;;3.00;;
74074;SDS011;62428;51.412;5.432;2023-08-31T05:38:41;9.27;;;3.40;;
74074;SDS011;62428;51.412;5.432;2023-08-31T05:41:06;9.45;;;3.22;;
74074;SDS011;62428;51.412;5.432;2023-08-31T05:43:33;9.50;;;3.50;;
74074;SDS011;62428;51.412;5.432;2023-08-31T05:45:59;11.30;;;3.38;;
74074;SDS011;62428;51.412;5.432;2023-08-31T05:48:25;8.00;;;3.22;;
74074;SDS011;62428;51.412;5.432;2023-08-31T05:50:50;6.88;;;3.50;;
74074;SDS011;62428;51.412;5.432;2023-08-31T05:53:16;9.17;;;3.07;;
74074;SDS011;62428;51.412;5.432;2023-08-31T05:55:41;11.97;;;3.47;;
74074;SDS011;62428;51.412;5.432;2023-08-31T05:58:07;8.10;;;3.42;;
74074;SDS011;62428;51.412;5.432;2023-08-31T06:00:32;7.10;;;3.40;;
74074;SDS011;62428;51.412;5.432;2023-08-31T06:02:58;7.70;;;3.43;;
74074;SDS011;62428;51.412;5.432;2023-08-31T06:05:23;7.53;;;3.80;;
74074;SDS011;62428;51.412;5.432;2023-08-31T06:07:48;9.57;;;2.77;;
74074;SDS011;62428;51.412;5.432;2023-08-31T06:10:14;9.97;;;3.30;;
74074;SDS011;62428;51.412;5.432;2023-08-31T06:12:40;7.90;;;3.28;;
74074;SDS011;62428;51.412;5.432;2023-08-31T06:15:05;5.40;;;3.30;;
74074;SDS011;62428;51.412;5.432;2023-08-31T06:17:31;10.60;;;3.63;;
74074;SDS011;62428;51.412;5.432;2023-08-31T06:19:57;10.55;;;3.42;;
74074;SDS011;62428;51.412;5.432;2023-08-31T06:22:22;14.48;;;4.07;;
74074;SDS011;62428;51.412;5.432;2023-08-31T06:24:49;6.97;;;3.17;;
74074;SDS011;62428;51.412;5.432;2023-08-31T06:27:15;8.35;;;3.58;;
74074;SDS011;62428;51.412;5.432;2023-08-31T06:29:41;10.38;;;3.50;;
74074;SDS011;62428;51.412;5.432;2023-08-31T06:32:07;8.87;;;3.53;;
74074;SDS011;62428;51.412;5.432;2023-08-31T06:34:32;8.80;;;3.40;;
74074;SDS011;62428;51.412;5.432;2023-08-31T06:36:57;14.33;;;4.13;;
74074;SDS011;62428;51.412;5.432;2023-08-31T06:39:23;10.18;;;3.35;;
74074;SDS011;62428;51.412;5.432;2023-08-31T06:41:49;7.37;;;4.00;;
74074;SDS011;62428;51.412;5.432;2023-08-31T06:44:14;6.78;;;3.15;;
74074;SDS011;62428;51.412;5.432;2023-08-31T06:46:40;10.45;;;4.00;;
74074;SDS011;62428;51.412;5.432;2023-08-31T06:49:05;13.40;;;3.67;;
74074;SDS011;62428;51.412;5.432;2023-08-31T06:51:31;9.27;;;3.70;;
74074;SDS011;62428;51.412;5.432;2023-08-31T06:53:57;7.15;;;3.40;;
74074;SDS011;62428;51.412;5.432;2023-08-31T06:56:30;13.13;;;3.97;;
74074;SDS011;62428;51.412;5.432;2023-08-31T06:58:57;11.47;;;3.90;;
74074;SDS011;62428;51.412;5.432;2023-08-31T07:01:23;13.00;;;3.55;;
74074;SDS011;62428;51.412;5.432;2023-08-31T07:03:48;8.85;;;3.65;;
74074;SDS011;62428;51.412;5.432;2023-08-31T07:06:13;9.90;;;3.40;;
74074;SDS011;62428;51.412;5.432;2023-08-31T07:08:39;9.70;;;3.97;;
74074;SDS011;62428;51.412;5.432;2023-08-31T07:11:05;6.65;;;3.30;;
74074;SDS011;62428;51.412;5.432;2023-08-31T07:13:31;13.57;;;3.67;;
74074;SDS011;62428;51.412;5.432;2023-08-31T07:15:57;9.70;;;3.60;;
74074;SDS011;62428;51.412;5.432;2023-08-31T07:18:22;8.83;;;3.33;;
74074;SDS011;62428;51.412;5.432;2023-08-31T07:20:47;9.57;;;3.17;;
74074;SDS011;62428;51.412;5.432;2023-08-31T07:23:13;11.97;;;3.20;;
74074;SDS011;62428;51.412;5.432;2023-08-31T07:25:38;5.28;;;2.38;;
74074;SDS011;62428;51.412;5.432;2023-08-31T07:28:04;7.83;;;2.90;;
74074;SDS011;62428;51.412;5.432;2023-08-31T07:30:30;7.20;;;2.90;;
74074;SDS011;62428;51.412;5.432;2023-08-31T07:32:55;9.40;;;3.10;;
74074;SDS011;62428;51.412;5.432;2023-08-31T07:35:21;11.30;;;2.90;;
74074;SDS011;62428;51.412;5.432;2023-08-31T07:37:46;8.70;;;2.90;;
74074;SDS011;62428;51.412;5.432;2023-08-31T07:40:12;11.15;;;2.92;;
74074;SDS011;62428;51.412;5.432;2023-08-31T07:42:37;6.97;;;2.60;;
74074;SDS011;62428;51.412;5.432;2023-08-31T07:45:03;9.33;;;2.87;;
74074;SDS011;62428;51.412;5.432;2023-08-31T07:47:30;8.48;;;2.70;;
74074;SDS011;62428;51.412;5.432;2023-08-31T07:49:56;8.10;;;2.47;;
74074;SDS011;62428;51.412;5.432;2023-08-31T07:52:21;5.93;;;2.28;;
74074;SDS011;62428;51.412;5.432;2023-08-31T07:54:47;7.97;;;2.42;;
74074;SDS011;62428;51.412;5.432;2023-08-31T07:57:12;4.70;;;2.40;;
74074;SDS011;62428;51.412;5.432;2023-08-31T07:59:38;7.65;;;2.33;;
74074;SDS011;62428;51.412;5.432;2023-08-31T08:02:05;9.15;;;2.63;;
74074;SDS011;62428;51.412;5.432;2023-08-31T08:04:31;10.55;;;2.15;;
74074;SDS011;62428;51.412;5.432;2023-08-31T08:06:56;8.07;;;2.20;;
74074;SDS011;62428;51.412;5.432;2023-08-31T08:09:22;7.75;;;2.78;;
74074;SDS011;62428;51.412;5.432;2023-08-31T08:11:47;6.50;;;2.80;;
74074;SDS011;62428;51.412;5.432;2023-08-31T08:14:13;7.07;;;2.60;;
74074;SDS011;62428;51.412;5.432;2023-08-31T08:16:38;8.10;;;2.50;;
74074;SDS011;62428;51.412;5.432;2023-08-31T08:19:05;10.83;;;2.57;;
74074;SDS011;62428;51.412;5.432;2023-08-31T08:21:31;8.07;;;2.80;;
74074;SDS011;62428;51.412;5.432;2023-08-31T08:23:56;8.77;;;2.63;;
74074;SDS011;62428;51.412;5.432;2023-08-31T08:26:21;6.18;;;2.25;;
74074;SDS011;62428;51.412;5.432;2023-08-31T08:28:47;8.87;;;2.77;;
74074;SDS011;62428;51.412;5.432;2023-08-31T08:31:12;11.03;;;2.70;;
74074;SDS011;62428;51.412;5.432;2023-08-31T08:33:37;9.37;;;2.63;;
74074;SDS011;62428;51.412;5.432;2023-08-31T08:36:03;9.70;;;3.00;;
74074;SDS011;62428;51.412;5.432;2023-08-31T08:38:28;10.57;;;3.15;;
74074;SDS011;62428;51.412;5.432;2023-08-31T08:40:54;5.37;;;2.50;;
74074;SDS011;62428;51.412;5.432;2023-08-31T08:43:25;10.00;;;2.67;;
74074;SDS011;62428;51.412;5.432;2023-08-31T08:45:52;9.05;;;2.40;;
74074;SDS011;62428;51.412;5.432;2023-08-31T08:48:18;9.07;;;2.80;;
74074;SDS011;62428;51.412;5.432;2023-08-31T08:50:45;10.10;;;2.35;;
74074;SDS011;62428;51.412;5.432;2023-08-31T08:53:11;5.45;;;2.50;;
74074;SDS011;62428;51.412;5.432;2023-08-31T08:55:38;9.90;;;2.07;;
74074;SDS011;62428;51.412;5.432;2023-08-31T08:58:06;8.90;;;2.60;;
74074;SDS011;62428;51.412;5.432;2023-08-31T09:00:32;9.93;;;2.23;;
74074;SDS011;62428;51.412;5.432;2023-08-31T09:02:58;9.85;;;2.15;;
74074;SDS011;62428;51.412;5.432;2023-08-31T09:05:25;6.38;;;2.30;;
74074;SDS011;62428;51.412;5.432;2023-08-31T09:11:01;5.22;;;1.90;;
74074;SDS011;62428;51.412;5.432;2023-08-31T09:13:25;8.80;;;2.40;;
74074;SDS011;62428;51.412;5.432;2023-08-31T09:15:54;4.55;;;2.47;;
74074;SDS011;62428;51.412;5.432;2023-08-31T09:20:49;7.53;;;2.20;;
74074;SDS011;62428;51.412;5.432;2023-08-31T09:23:15;7.80;;;2.25;;
74074;SDS011;62428;51.412;5.432;2023-08-31T09:25:59;7.15;;;2.40;;
74074;SDS011;62428;51.412;5.432;2023-08-31T09:28:25;8.13;;;2.77;;
74074;SDS011;62428;51.412;5.432;2023-08-31T09:30:53;6.28;;;2.50;;
74074;SDS011;62428;51.412;5.432;2023-08-31T09:33:35;7.03;;;2.45;;
74074;SDS011;62428;51.412;5.432;2023-08-31T09:36:01;7.15;;;2.47;;
74074;SDS011;62428;51.412;5.432;2023-08-31T09:38:28;9.32;;;2.75;;
74074;SDS011;62428;51.412;5.432;2023-08-31T09:41:04;7.37;;;2.13;;
74074;SDS011;62428;51.412;5.432;2023-08-31T09:43:30;6.15;;;2.40;;
74074;SDS011;62428;51.412;5.432;2023-08-31T09:45:56;6.40;;;2.20;;
74074;SDS011;62428;51.412;5.432;2023-08-31T09:48:21;6.23;;;2.00;;
74074;SDS011;62428;51.412;5.432;2023-08-31T09:50:48;5.70;;;1.90;;
74074;SDS011;62428;51.412;5.432;2023-08-31T09:53:16;7.90;;;2.10;;
74074;SDS011;62428;51.412;5.432;2023-08-31T09:55:42;4.63;;;1.80;;
74074;SDS011;62428;51.412;5.432;2023-08-31T09:58:08;5.38;;;2.70;;
74074;SDS011;62428;51.412;5.432;2023-08-31T10:00:35;6.83;;;2.17;;
74074;SDS011;62428;51.412;5.432;2023-08-31T10:03:02;7.75;;;1.77;;
74074;SDS011;62428;51.412;5.432;2023-08-31T10:05:30;5.57;;;2.10;;
74074;SDS011;62428;51.412;5.432;2023-08-31T10:07:56;4.47;;;1.92;;
74074;SDS011;62428;51.412;5.432;2023-08-31T10:10:22;6.15;;;1.70;;
74074;SDS011;62428;51.412;5.432;2023-08-31T10:12:48;7.33;;;1.80;;
74074;SDS011;62428;51.412;5.432;2023-08-31T10:15:15;4.88;;;1.60;;
74074;SDS011;62428;51.412;5.432;2023-08-31T10:17:41;7.15;;;1.77;;
74074;SDS011;62428;51.412;5.432;2023-08-31T10:20:08;5.00;;;1.35;;
74074;SDS011;62428;51.412;5.432;2023-08-31T10:22:34;7.15;;;1.70;;
74074;SDS011;62428;51.412;5.432;2023-08-31T10:25:02;4.23;;;1.20;;
74074;SDS011;62428;51.412;5.432;2023-08-31T10:27:29;3.78;;;1.25;;
74074;SDS011;62428;51.412;5.432;2023-08-31T10:32:40;4.22;;;1.25;;
74074;SDS011;62428;51.412;5.432;2023-08-31T10:35:06;4.77;;;1.17;;
74074;SDS011;62428;51.412;5.432;2023-08-31T10:37:33;4.57;;;1.70;;
74074;SDS011;62428;51.412;5.432;2023-08-31T10:40:11;5.27;;;1.33;;
74074;SDS011;62428;51.412;5.432;2023-08-31T10:42:46;5.38;;;1.50;;
74074;SDS011;62428;51.412;5.432;2023-08-31T10:45:42;5.50;;;1.30;;
74074;SDS011;62428;51.412;5.432;2023-08-31T10:48:08;2.92;;;1.00;;
74074;SDS011;62428;51.412;5.432;2023-08-31T10:50:34;4.97;;;1.43;;
74074;SDS011;62428;51.412;5.432;2023-08-31T10:53:09;6.97;;;1.70;;
74074;SDS011;62428;51.412;5.432;2023-08-31T10:55:49;7.05;;;1.85;;
74074;SDS011;62428;51.412;5.432;2023-08-31T10:58:16;4.55;;;1.40;;
74074;SDS011;62428;51.412;5.432;2023-08-31T11:00:51;6.23;;;1.73;;
74074;SDS011;62428;51.412;5.432;2023-08-31T11:03:18;4.20;;;1.33;;
74074;SDS011;62428;51.412;5.432;2023-08-31T11:05:52;4.23;;;1.27;;
74074;SDS011;62428;51.412;5.432;2023-08-31T11:08:21;6.63;;;1.30;;
74074;SDS011;62428;51.412;5.432;2023-08-31T11:10:48;4.00;;;1.20;;
74074;SDS011;62428;51.412;5.432;2023-08-31T11:13:18;5.00;;;1.40;;
74074;SDS011;62428;51.412;5.432;2023-08-31T11:15:47;4.72;;;1.20;;
74074;SDS011;62428;51.412;5.432;2023-08-31T11:18:13;5.13;;;1.05;;
74074;SDS011;62428;51.412;5.432;2023-08-31T11:20:42;6.00;;;1.50;;
74074;SDS011;62428;51.412;5.432;2023-08-31T11:23:08;7.27;;;1.50;;
74074;SDS011;62428;51.412;5.432;2023-08-31T11:25:33;4.07;;;1.40;;
74074;SDS011;62428;51.412;5.432;2023-08-31T11:28:00;4.40;;;1.25;;
74074;SDS011;62428;51.412;5.432;2023-08-31T11:30:29;7.90;;;1.50;;
74074;SDS011;62428;51.412;5.432;2023-08-31T11:33:02;8.57;;;1.60;;
74074;SDS011;62428;51.412;5.432;2023-08-31T11:35:32;8.10;;;1.50;;
74074;SDS011;62428;51.412;5.432;2023-08-31T11:38:00;5.05;;;1.25;;
74074;SDS011;62428;51.412;5.432;2023-08-31T11:40:26;3.93;;;1.40;;
74074;SDS011;62428;51.412;5.432;2023-08-31T11:42:52;5.63;;;1.52;;
74074;SDS011;62428;51.412;5.432;2023-08-31T11:45:18;4.27;;;1.10;;
74074;SDS011;62428;51.412;5.432;2023-08-31T11:47:44;6.83;;;1.50;;
74074;SDS011;62428;51.412;5.432;2023-08-31T11:50:09;5.90;;;1.07;;
74074;SDS011;62428;51.412;5.432;2023-08-31T11:52:36;5.97;;;1.23;;
74074;SDS011;62428;51.412;5.432;2023-08-31T11:55:08;5.25;;;1.52;;
74074;SDS011;62428;51.412;5.432;2023-08-31T11:57:35;6.55;;;1.70;;
74074;SDS011;62428;51.412;5.432;2023-08-31T12:00:00;5.00;;;1.60;;
74074;SDS011;62428;51.412;5.432;2023-08-31T12:02:34;6.50;;;1.90;;
74074;SDS011;62428;51.412;5.432;2023-08-31T12:05:00;5.68;;;1.60;;
74074;SDS011;62428;51.412;5.432;2023-08-31T12:07:25;5.20;;;1.60;;
74074;SDS011;62428;51.412;5.432;2023-08-31T12:09:50;4.83;;;1.53;;
74074;SDS011;62428;51.412;5.432;2023-08-31T12:12:19;7.57;;;1.87;;
74074;SDS011;62428;51.412;5.432;2023-08-31T12:14:45;5.97;;;1.80;;
74074;SDS011;62428;51.412;5.432;2023-08-31T12:17:11;6.83;;;1.60;;
74074;SDS011;62428;51.412;5.432;2023-08-31T12:19:37;4.57;;;1.47;;
74074;SDS011;62428;51.412;5.432;2023-08-31T12:22:04;7.70;;;1.40;;
74074;SDS011;62428;51.412;5.432;2023-08-31T12:24:36;6.10;;;1.50;;
74074;SDS011;62428;51.412;5.432;2023-08-31T12:27:02;9.87;;;2.00;;
74074;SDS011;62428;51.412;5.432;2023-08-31T12:29:28;4.82;;;1.50;;
74074;SDS011;62428;51.412;5.432;2023-08-31T12:31:53;11.03;;;1.70;;
74074;SDS011;62428;51.412;5.432;2023-08-31T12:34:18;3.43;;;1.07;;
74074;SDS011;62428;51.412;5.432;2023-08-31T12:36:44;7.67;;;1.03;;
74074;SDS011;62428;51.412;5.432;2023-08-31T12:39:09;6.00;;;1.40;;
74074;SDS011;62428;51.412;5.432;2023-08-31T12:41:38;6.85;;;1.50;;
74074;SDS011;62428;51.412;5.432;2023-08-31T12:44:05;3.78;;;1.20;;
74074;SDS011;62428;51.412;5.432;2023-08-31T12:46:31;6.55;;;1.40;;
74074;SDS011;62428;51.412;5.432;2023-08-31T12:48:57;5.23;;;1.27;;
74074;SDS011;62428;51.412;5.432;2023-08-31T12:51:22;2.90;;;1.13;;
74074;SDS011;62428;51.412;5.432;2023-08-31T12:53:48;3.50;;;1.20;;
74074;SDS011;62428;51.412;5.432;2023-08-31T12:56:13;6.87;;;1.20;;
74074;SDS011;62428;51.412;5.432;2023-08-31T12:58:46;5.30;;;1.30;;
74074;SDS011;62428;51.412;5.432;2023-08-31T13:01:12;2.58;;;1.20;;
74074;SDS011;62428;51.412;5.432;2023-08-31T13:03:37;4.90;;;1.20;;
74074;SDS011;62428;51.412;5.432;2023-08-31T13:06:03;5.20;;;2.10;;
74074;SDS011;62428;51.412;5.432;2023-08-31T13:08:28;4.83;;;1.80;;
74074;SDS011;62428;51.412;5.432;2023-08-31T13:10:54;5.37;;;1.97;;
74074;SDS011;62428;51.412;5.432;2023-08-31T13:13:20;5.90;;;2.60;;
74074;SDS011;62428;51.412;5.432;2023-08-31T13:15:46;6.30;;;3.10;;
74074;SDS011;62428;51.412;5.432;2023-08-31T13:18:12;7.00;;;2.88;;
74074;SDS011;62428;51.412;5.432;2023-08-31T13:20:38;6.53;;;2.97;;
74074;SDS011;62428;51.412;5.432;2023-08-31T13:23:03;6.67;;;2.90;;
74074;SDS011;62428;51.412;5.432;2023-08-31T13:25:29;6.78;;;3.22;;
74074;SDS011;62428;51.412;5.432;2023-08-31T13:27:54;6.20;;;2.70;;
74074;SDS011;62428;51.412;5.432;2023-08-31T13:30:19;8.03;;;3.47;;
74074;SDS011;62428;51.412;5.432;2023-08-31T13:32:45;6.97;;;3.93;;
74074;SDS011;62428;51.412;5.432;2023-08-31T13:35:10;7.10;;;3.83;;
74074;SDS011;62428;51.412;5.432;2023-08-31T13:37:36;6.50;;;3.33;;
74074;SDS011;62428;51.412;5.432;2023-08-31T13:40:01;6.80;;;3.83;;
74074;SDS011;62428;51.412;5.432;2023-08-31T13:42:33;7.05;;;3.60;;
74074;SDS011;62428;51.412;5.432;2023-08-31T13:44:59;4.90;;;3.28;;
74074;SDS011;62428;51.412;5.432;2023-08-31T13:47:25;5.87;;;3.20;;
74074;SDS011;62428;51.412;5.432;2023-08-31T13:49:50;4.80;;;3.07;;
74074;SDS011;62428;51.412;5.432;2023-08-31T13:52:15;5.83;;;2.97;;
74074;SDS011;62428;51.412;5.432;2023-08-31T13:54:41;7.85;;;3.50;;
74074;SDS011;62428;51.412;5.432;2023-08-31T13:57:07;7.70;;;3.13;;
74074;SDS011;62428;51.412;5.432;2023-08-31T13:59:32;5.40;;;3.27;;
74074;SDS011;62428;51.412;5.432;2023-08-31T14:01:57;6.37;;;3.67;;
74074;SDS011;62428;51.412;5.432;2023-08-31T14:04:23;6.87;;;3.30;;
74074;SDS011;62428;51.412;5.432;2023-08-31T14:06:48;7.60;;;3.63;;
74074;SDS011;62428;51.412;5.432;2023-08-31T14:09:13;6.67;;;3.40;;
74074;SDS011;62428;51.412;5.432;2023-08-31T14:11:39;8.10;;;3.20;;
74074;SDS011;62428;51.412;5.432;2023-08-31T14:14:06;7.43;;;3.80;;
74074;SDS011;62428;51.412;5.432;2023-08-31T14:16:36;10.33;;;3.17;;
74074;SDS011;62428;51.412;5.432;2023-08-31T14:19:03;7.57;;;3.42;;
74074;SDS011;62428;51.412;5.432;2023-08-31T14:21:28;5.05;;;3.00;;
74074;SDS011;62428;51.412;5.432;2023-08-31T14:23:54;7.53;;;2.90;;
74074;SDS011;62428;51.412;5.432;2023-08-31T14:26:21;8.27;;;3.65;;
74074;SDS011;62428;51.412;5.432;2023-08-31T14:28:52;8.40;;;3.50;;
74074;SDS011;62428;51.412;5.432;2023-08-31T14:31:18;7.05;;;3.42;;
74074;SDS011;62428;51.412;5.432;2023-08-31T14:33:44;8.90;;;3.50;;
74074;SDS011;62428;51.412;5.432;2023-08-31T14:36:09;5.85;;;3.15;;
74074;SDS011;62428;51.412;5.432;2023-08-31T14:38:35;6.47;;;3.30;;
74074;SDS011;62428;51.412;5.432;2023-08-31T14:41:00;6.07;;;3.43;;
74074;SDS011;62428;51.412;5.432;2023-08-31T14:43:26;6.87;;;3.20;;
74074;SDS011;62428;51.412;5.432;2023-08-31T14:45:51;9.43;;;3.20;;
74074;SDS011;62428;51.412;5.432;2023-08-31T14:48:16;8.35;;;2.80;;
74074;SDS011;62428;51.412;5.432;2023-08-31T14:50:42;4.90;;;2.90;;
74074;SDS011;62428;51.412;5.432;2023-08-31T14:53:08;5.53;;;3.42;;
74074;SDS011;62428;51.412;5.432;2023-08-31T14:55:34;7.30;;;3.20;;
74074;SDS011;62428;51.412;5.432;2023-08-31T14:57:59;7.77;;;3.50;;